Řízení letového provozu České republiky
Letiste: LKLN Aktualizace: 27.05.2018 00:01:07  UTC
 METAR LKLN 27.05. 00:00 ...
METAR LKLN 270000Z AUTO 00000KT 9999 BKN120 14/12 Q1022=